Wooler Trail Marathon - 2023 Race results

wooler trail marathon - 2023 results

OUR NEXT RACE IS THE BRANCHES & BAYS 10K - CLICK HERE FOR MORE INFO

NumberFirstnameLastnameClubTimePostionGenderGender
Postion
CategoryCategory
Postion
94 Harvey Martin Scott Sports 03:57:43.399 1 Male 1 M 1
83 James Largey North East Project 04:12:01.728 2 Male 2 M 2
20 Oleg Chepelin Hbt 04:34:25.155 3 Male 3 M 3
5 Andrew Armin Saltwell Harriers 04:49:06.255 4 Male 4 M 4
118 Paul Reglinski 04:51:10.485 5 Male 5 M 5
30 Simon Coplestone 05:03:13.695 6 Male 6 M40 1
36 Alex Daley 05:07:28.965 7 Male 7 M 6
151 Simon Thompson Keswick Ac 05:11:24.705 8 Male 8 M40 2
108 Wayne Neesam 05:15:30.078 9 Male 9 M40 3
152 Stanley Topalian Westerlandsccc 05:18:54.885 10 Male 10 M40 4
142 Kevin Stobbs 05:20:50.535 11 Male 11 M40 5
38 Edward Davies Ponteland Runners 05:26:04.516 12 Male 12 M40 6
86 Georgina Lewis 05:26:06.586 13 Female 1 F 1
73 Michael Impey Haac 05:28:09.675 14 Male 13 M40 7
120 Angus Robertson Ltrc 05:33:43.006 15 Male 14 M50 1
28 Darren Collins 05:34:56.115 16 Male 15 M 7
143 Peter Storey Northumberland Fell Runners 05:40:10.635 17 Male 16 M40 8
148 Konrad Temple 05:42:01.965 18 Male 17 M 8
106 Simon Munnis 05:42:01.995 19 Male 18 M40 9
87 Sam Lewsey Easingwold Running Club 05:42:11.535 20 Female 2 F40 1
49 Nigel Ferry 05:42:16.696 21 Male 19 M40 10
79 Brian Kennedy Carnethy Hill Running 05:42:47.446 22 Male 20 M40 11
19 Matthew Butcher 05:46:11.895 23 Male 21 M 9
43 Charlie Dunne 06:05:12.916 24 Male 22 M 10
157 Deborah Warner Portobello Running Club 06:05:28.275 25 Female 3 F40 2
113 Kostya Penkov Clapham Chasers 06:06:27.255 26 Male 23 M50 2
169 Anna Wright Morpeth Harriers 06:06:35.385 27 Female 4 F40 3
57 Ady Gray 06:07:00.315 28 Male 24 M50 3
167 Chris Woodley 06:07:03.434 29 Male 25 M 11
77 Matt Juchniewicz Haddington Running Club 06:10:30.795 30 Male 26 M40 12
67 Gary Higgins 06:10:59.895 31 Male 27 M50 4
111 Gary Pawson 06:13:14.195 32 Male 28 M40 13
125 Simon Rycroft Pickering Rc 06:13:16.099 33 Male 29 M50 5
90 Andrew Macpherson 06:13:37.156 34 Male 30 M 12
45 Daniel Evans None 06:13:50.535 35 Male 31 M40 14
48 Ben Fenwick 06:14:34.965 36 Male 32 M 13
52 Neil Forrest Cheviot Trail Runners 06:16:02.085 37 Male 33 M40 15
53 Jon French Blyth Running Club 06:17:20.266 38 Male 34 M40 16
3 Jason Allen 06:17:25.965 39 Male 35 M50 6
35 Chloe Cutler-Burton 06:18:08.446 40 Female 5 F 2
175 Danielle Macgill 06:19:54.525 41 Female 6 F 3
119 Allan Richardson Tyne And Wear Fire And Rescue 06:20:42.375 42 Male 36 M60 1
4 Vince Allen Cheviot Trail Runners Club 06:21:48.885 43 Male 37 M40 17
47 Steven Fairbairn Durham City Harriers & Ac 06:28:32.326 44 Male 38 M40 18
127 Stuart Shaw 06:28:34.365 45 Male 39 M40 19
144 Nicola Swinbourne Hartlepool Burn Road Harriers 06:29:04.725 46 Female 7 F40 4
147 Will Telfer Newcastle Frontrunners 06:30:41.985 47 Male 40 M40 20
1 Omar Al-Naimi Nemc 06:32:55.456 48 Male 41 M50 7
136 Daniel Stafford Stainland Lions Running Club 06:32:56.627 49 Male 42 M 14
98 Nicola Mccoy 06:34:37.665 50 Female 8 F50 1
55 Glenn Galea Derwent Valley Trail Runners (Dvtr) 06:34:38.416 51 Male 43 M 15
64 Andrew Hawthorne South Shields Harriers And Ac 06:35:15.345 52 Male 44 M40 21
10 Gillian Bell Tynedale Harriers & Ac 06:37:49.275 53 Female 9 F40 5
158 Kevin Watler Cheviot Trail Runners 06:45:57.466 54 Male 45 M 16
58 David Gray Ashington Hirst Running Club 06:45:58.575 55 Male 46 M60 2
155 Neil Wallbank 06:46:57.435 56 Male 47 M40 22
44 Brian Evans Congleton Harriers 06:47:58.935 57 Male 48 M60 3
122 Suzanne Roebuck Congleton Harriers 06:47:59.117 58 Female 10 F50 2
71 Tamsin Imber Elvet Striders 06:50:59.445 59 Female 11 F40 6
69 Kenneth Holbourn 06:54:12.675 60 Male 49 M40 23
163 Matt White 06:54:15.016 61 Male 50 M 17
22 Kev Clelland 06:54:58.726 62 Male 51 M40 24
17 Matt Bryan 06:55:03.856 63 Male 52 M 18
80 Chad Krease 06:55:42.466 64 Male 53 M50 8
65 Will Haxton Cheviot Trail Runners 06:57:25.906 65 Male 54 M40 25
68 Vicky Hogg 06:57:52.695 66 Female 12 F 4
13 Lee Boatman Trail Outlaws Running Club - Team Torc 06:58:47.955 67 Male 55 M50 9
66 Fred Heath Nuneaton Harriers Ac 06:59:12.586 68 Male 56 M60 4
134 Ian Spriggs 06:59:22.365 69 Male 57 M50 10
135 Sharon Spriggs 06:59:22.637 70 Female 13 F50 3
29 Gary Connelly 07:01:40.816 71 Male 58 M50 11
100 Paul Mcmahon 07:08:21.076 72 Male 59 M50 12
156 Kimberley Ward-Pawson 07:09:41.895 73 Female 14 F 5
8 Melissa Beattie Ponteland Runners 07:11:06.736 74 Female 15 F 6
50 Darren Findlater 07:17:10.395 75 Male 60 M50 13
31 Craig Kilday 07:17:11.866 76 Male 61 M50 14
92 Ian Marley Tricademy 07:29:11.026 77 Male 62 M50 15
138 Daniel Staves 07:33:38.536 78 Male 63 M 19
14 Jordan Bond 07:33:38.776 79 Male 64 M 20
7 Mel Barrett 07:36:07.996 80 Female 16 F 7
146 Helen Tate Trail Outlaws Running Club 07:37:30.736 81 Female 17 F40 7
139 Chantelle Steinbeck 07:38:22.906 82 Female 18 F 8
101 Stuart Mcmillan Carnethy 07:40:07.095 83 Male 65 M40 26
95 Susie Maxwell Penicuik Harriers 07:41:03.196 84 Female 19 F50 4
162 Jayne Wetherley 07:41:50.086 85 Female 20 F50 5
154 Dale Underwood 07:42:11.116 86 Male 66 M 21
105 Iain Morrison 07:47:39.976 87 Male 67 M40 27
128 James Michael Shaw 07:48:07.905 88 Male 68 M50 16
114 Martin Price 07:49:20.086 89 Male 69 M40 28
61 Keith Greenwood 07:49:20.596 90 Male 70 M50 17
153 Sarah Turnbull Washington Running Club 07:51:24.616 91 Female 21 F 9
123 Kayleigh Ross Washington Running Club 07:51:26.206 92 Female 22 F 10
93 Duncan Marsh Dark Peak Fell Runners 07:56:10.635 93 Male 71 M50 18
160 Fran Welsh 07:56:17.056 94 Female 23 F 11
161 Vic Welsh 07:56:19.187 95 Female 24 F 12
42 Scott Dewhurst 08:01:05.295 96 Male 72 M40 29
137 Lorrel Staton Lonely Goat Rc 08:02:02.776 97 Female 25 F40 8
82 Gary Lang Thorne Twilight Trotters 08:02:03.196 98 Male 73 M50 19
145 David Tague Washington 08:02:04.246 99 Male 74 M50 20
12 Caroline Billis Heaton Harriers & Ac 08:02:05.475 100 Female 26 F40 9
168 Steve Wright 08:02:09.588 101 Male 75 M40 30
33 Andrew Currans 08:06:56.476 102 Male 76 M50 21
72 Lucy Impey Helensburgh Aac 08:15:38.356 103 Female 27 F40 10
27 Julie Collin 08:15:43.398 104 Female 28 F 13
23 Jamie Cobain 08:19:01.006 105 Male 77 M 22
24 Nathan Cobain 08:19:02.987 106 Male 78 M 23
9 Mhairi Beattie Muckle Toon Joggers 08:19:22.996 107 Female 29 F40 11
74 Pauline Irving Muckletoon Joggers 08:19:23.866 108 Female 30 F50 6
96 Gillian Mccoll 08:31:32.205 109 Female 31 F50 7
76 Barbara Johnson Thorne Twilight Trotters 08:50:33.916 110 Female 32 F50 8
59 Les Green Thorne Twilight Trotters 08:50:34.637 111 Male 79 M60 5
116 Kelly Prydderch Snaith And Cowick Running Club 08:50:35.206 112 Female 33 F40 12
51 Amy Findlay 08:53:06.526 113 Female 34 F 14
75 Anna Jemmett 08:53:08.627 114 Female 35 F 15
99 Cas Mckinnon Fell Runners Association 09:05:09.449 115 Male 80 M60 6
176 Claire O'Malley 09:24:27.555 116 Female 36 F 16
171 Nigel Westwood 09:24:27.885 117 Male 81 M 24
107 George Murphy Bedford Harriers Ac DNF 118 Male 82 M40 31
11 Scott Bell DNF 118 Male 82 M 25
115 Stuart Proctor Mercia Fell Runners DNF 118 Male 82 M50 22
78 Rohan Katargamwala Shefford Runners DNF 118 Male 82 M 25